Presidencia Roque Saenz Pena, Argentina
Current Conditions -  °F | °C
As of 1:00 AM on Sunday 21 Dec 2014 (Local Time) from SARE Reporting Station
Broken Clouds Broken Clouds  
Wind Chill: 86°   Ceiling: 2500
Heat Index: 95°   Visibility: 6mi
Dew Point: 75°   Wind: 12mph
Humidity: 70%   Direction: 360°N
Pressure: 29.47"   Gusts: NA
Location:  26.79°S, 60.45°W
Report Text: SARE 210400Z 36010KT 9999 BKN025 BKN100 FEW056CB 30/24 Q0998
Loading
Personal Weather Stations






























Interactive Weather Map New forecast layout! Learn more

10-Day Weather Forecast

Advertisements
Track Severe Weather on mobile